createdAt,value
2023-05-20T00:00:04.941Z,12.6
2023-05-20T00:01:05.095Z,12.6
2023-05-20T00:02:05.271Z,12.6
2023-05-20T00:03:05.617Z,12.6
2023-05-20T00:04:06.527Z,12.6
2023-05-20T00:05:07.273Z,12.6
2023-05-20T00:06:07.511Z,12.6
2023-05-20T00:07:07.702Z,12.6
2023-05-20T00:08:07.948Z,12.6
2023-05-20T00:09:08.101Z,12.6
2023-05-20T00:10:08.347Z,12.6
2023-05-20T00:11:08.545Z,12.3
2023-05-20T00:12:08.741Z,12.3
2023-05-20T00:13:09.142Z,12.3
2023-05-20T00:14:09.291Z,12.3
2023-05-20T00:15:09.483Z,12.3
2023-05-20T00:16:09.824Z,12.3
2023-05-20T00:17:10.003Z,12.3
2023-05-20T00:18:10.234Z,12.3
2023-05-20T00:19:10.542Z,12.3
2023-05-20T00:20:10.758Z,12.3
2023-05-20T00:21:10.929Z,12.3
2023-05-20T00:22:11.091Z,12.3
2023-05-20T00:23:11.257Z,12.3
2023-05-20T00:24:11.433Z,12.3
2023-05-20T00:25:11.617Z,12.3
2023-05-20T00:26:11.814Z,12.3
2023-05-20T00:27:11.983Z,12.3
2023-05-20T00:28:12.170Z,12.3
2023-05-20T00:29:12.338Z,12.3
2023-05-20T00:30:12.540Z,12.3
2023-05-20T00:31:12.741Z,12.3
2023-05-20T00:32:12.980Z,12.3
2023-05-20T00:33:13.563Z,12.3
2023-05-20T00:34:13.807Z,12.3
2023-05-20T00:35:14.067Z,12.3
2023-05-20T00:36:14.262Z,12.3
2023-05-20T00:37:14.443Z,12.3
2023-05-20T00:38:14.632Z,12.3
2023-05-20T00:39:14.837Z,12.3
2023-05-20T00:40:15.899Z,12.3
2023-05-20T00:41:16.115Z,12.3
2023-05-20T00:42:16.263Z,12.3
2023-05-20T00:43:16.494Z,12.3
2023-05-20T00:44:16.655Z,12.3
2023-05-20T00:45:16.806Z,12.3
2023-05-20T00:46:17.074Z,12.3
2023-05-20T00:47:17.382Z,12.3
2023-05-20T00:48:17.554Z,12.3
2023-05-20T00:49:17.705Z,12.3
2023-05-20T00:50:17.887Z,12.3
2023-05-20T00:51:18.078Z,12.3
2023-05-20T00:52:18.278Z,12.3
2023-05-20T00:53:18.476Z,12.3
2023-05-20T00:54:18.748Z,12.3
2023-05-20T00:55:18.939Z,12.3
2023-05-20T00:56:19.188Z,12.3
2023-05-20T00:57:19.462Z,12.3
2023-05-20T00:58:19.620Z,12.3
2023-05-20T00:59:19.794Z,12.3
2023-05-20T01:00:20.009Z,12.3
2023-05-20T01:01:20.248Z,12.3
2023-05-20T01:02:20.672Z,12.3
2023-05-20T01:03:21.374Z,12.3
2023-05-20T01:04:21.861Z,12.3
2023-05-20T01:05:22.087Z,12.3
2023-05-20T01:06:22.247Z,12.3
2023-05-20T01:07:22.422Z,12.3
2023-05-20T01:08:22.660Z,12.3
2023-05-20T01:09:22.965Z,12.3
2023-05-20T01:10:23.171Z,12.3
2023-05-20T01:11:23.377Z,11.6
2023-05-20T01:12:23.598Z,11.6
2023-05-20T01:13:23.830Z,11.6
2023-05-20T01:14:23.996Z,11.6
2023-05-20T01:15:24.182Z,11.6
2023-05-20T01:16:24.588Z,11.6
2023-05-20T01:17:25.031Z,11.6
2023-05-20T01:18:25.197Z,11.6
2023-05-20T01:19:25.569Z,11.6
2023-05-20T01:20:25.835Z,11.6
2023-05-20T01:21:25.999Z,11.6
2023-05-20T01:22:26.171Z,11.6
2023-05-20T01:23:26.341Z,11.6
2023-05-20T01:24:26.502Z,11.6
2023-05-20T01:25:26.706Z,11.6
2023-05-20T01:26:27.023Z,11.6
2023-05-20T01:27:27.572Z,11.6
2023-05-20T01:28:27.758Z,11.6
2023-05-20T01:29:27.938Z,11.6
2023-05-20T01:30:28.133Z,11.6
2023-05-20T01:31:28.332Z,11.6
2023-05-20T01:32:28.672Z,11.6
2023-05-20T01:33:28.918Z,11.6
2023-05-20T01:34:29.090Z,11.6
2023-05-20T01:35:29.268Z,11.6
2023-05-20T01:36:29.446Z,11.6
2023-05-20T01:37:29.680Z,11.6
2023-05-20T01:38:29.863Z,11.6
2023-05-20T01:39:30.022Z,11.6
2023-05-20T01:40:30.210Z,11.6
2023-05-20T01:41:30.403Z,11.6
2023-05-20T01:42:30.552Z,11.6
2023-05-20T01:43:30.759Z,11.6
2023-05-20T01:44:30.930Z,11.6
2023-05-20T01:45:31.150Z,11.6
2023-05-20T01:46:31.528Z,11.6
2023-05-20T01:47:31.824Z,11.6
2023-05-20T01:48:32.068Z,11.6
2023-05-20T01:49:32.262Z,11.6
2023-05-20T01:50:32.432Z,11.6
2023-05-20T01:51:32.601Z,11.6
2023-05-20T01:52:32.790Z,11.6
2023-05-20T01:53:32.962Z,11.6
2023-05-20T01:54:33.386Z,11.6
2023-05-20T01:55:34.218Z,11.6
2023-05-20T01:56:34.960Z,11.6
2023-05-20T01:57:35.126Z,11.6
2023-05-20T01:58:35.301Z,11.6
2023-05-20T01:59:35.463Z,11.6
2023-05-20T02:00:35.681Z,11.6
2023-05-20T02:01:35.969Z,11.6
2023-05-20T02:02:36.540Z,11.6
2023-05-20T02:03:37.102Z,11.6
2023-05-20T02:04:37.262Z,11.6
2023-05-20T02:05:38.447Z,11.6
2023-05-20T02:06:39.458Z,11.6
2023-05-20T02:07:39.659Z,11.6
2023-05-20T02:08:39.817Z,11.6
2023-05-20T02:09:39.965Z,11.6
2023-05-20T02:10:40.135Z,10.8
2023-05-20T02:11:40.303Z,10.8
2023-05-20T02:12:40.482Z,10.8
2023-05-20T02:13:40.639Z,10.8
2023-05-20T02:14:40.795Z,10.8
2023-05-20T02:15:40.952Z,10.8
2023-05-20T02:16:41.225Z,10.8
2023-05-20T02:17:41.654Z,10.8
2023-05-20T02:18:41.974Z,10.8
2023-05-20T02:19:42.164Z,10.8
2023-05-20T02:20:42.319Z,10.8
2023-05-20T02:21:42.495Z,10.8
2023-05-20T02:22:42.668Z,10.8
2023-05-20T02:23:42.840Z,10.8
2023-05-20T02:24:43.008Z,10.8
2023-05-20T02:25:43.227Z,10.8
2023-05-20T02:26:43.507Z,10.8
2023-05-20T02:27:43.670Z,10.8
2023-05-20T02:28:43.834Z,10.8
2023-05-20T02:29:43.990Z,10.8
2023-05-20T02:30:44.159Z,10.8
2023-05-20T02:31:44.318Z,10.8
2023-05-20T02:32:44.625Z,10.8
2023-05-20T02:33:44.977Z,10.8
2023-05-20T02:34:45.369Z,10.8
2023-05-20T02:35:45.581Z,10.8
2023-05-20T02:36:45.760Z,10.8
2023-05-20T02:37:45.958Z,10.8
2023-05-20T02:38:46.140Z,10.8
2023-05-20T02:39:46.329Z,10.8
2023-05-20T02:40:46.514Z,10.8
2023-05-20T02:41:46.663Z,10.8
2023-05-20T02:42:46.881Z,10.8
2023-05-20T02:43:47.077Z,10.8
2023-05-20T02:44:47.253Z,10.8
2023-05-20T02:45:47.507Z,10.8
2023-05-20T02:46:47.781Z,10.8
2023-05-20T02:47:48.046Z,10.8
2023-05-20T02:48:48.330Z,10.8
2023-05-20T02:49:48.601Z,10.8
2023-05-20T02:50:48.830Z,10.8
2023-05-20T02:51:49.143Z,10.8
2023-05-20T02:52:49.432Z,10.8
2023-05-20T02:53:49.610Z,10.8
2023-05-20T02:54:49.752Z,10.8
2023-05-20T02:55:49.917Z,10.8
2023-05-20T02:56:50.088Z,10.8
2023-05-20T02:57:50.308Z,10.8
2023-05-20T02:58:50.464Z,10.8
2023-05-20T02:59:50.634Z,10.8
2023-05-20T03:00:50.823Z,10.8
2023-05-20T03:01:51.066Z,10.8
2023-05-20T03:02:51.424Z,10.8
2023-05-20T03:03:51.822Z,10.8
2023-05-20T03:04:52.320Z,10.8
2023-05-20T03:05:52.598Z,10.8
2023-05-20T03:06:52.773Z,10.8
2023-05-20T03:07:52.970Z,10.8
2023-05-20T03:08:53.160Z,10.8
2023-05-20T03:09:53.326Z,10.8
2023-05-20T03:10:53.493Z,10.2
2023-05-20T03:11:53.674Z,10.2
2023-05-20T03:12:53.872Z,10.2
2023-05-20T03:13:54.061Z,10.2
2023-05-20T03:14:54.217Z,10.2
2023-05-20T03:15:54.561Z,10.2
2023-05-20T03:16:54.786Z,10.2
2023-05-20T03:17:55.050Z,10.2
2023-05-20T03:18:55.389Z,10.2
2023-05-20T03:19:55.583Z,10.2
2023-05-20T03:20:55.775Z,10.2
2023-05-20T03:21:55.933Z,10.2
2023-05-20T03:22:56.083Z,10.2
2023-05-20T03:23:56.260Z,10.2
2023-05-20T03:24:56.428Z,10.2
2023-05-20T03:25:56.601Z,10.2
2023-05-20T03:26:56.766Z,10.2
2023-05-20T03:27:56.951Z,10.2
2023-05-20T03:28:57.148Z,10.2
2023-05-20T03:29:57.313Z,10.2
2023-05-20T03:30:57.519Z,10.2
2023-05-20T03:31:57.751Z,10.2
2023-05-20T03:32:58.089Z,10.2
2023-05-20T03:33:58.278Z,10.2
2023-05-20T03:34:58.472Z,10.2
2023-05-20T03:35:58.633Z,10.2
2023-05-20T03:36:58.820Z,10.2
2023-05-20T03:37:59.001Z,10.2
2023-05-20T03:38:59.223Z,10.2
2023-05-20T03:39:59.403Z,10.2
2023-05-20T03:40:59.594Z,10.2
2023-05-20T03:41:59.882Z,10.2
2023-05-20T03:43:00.176Z,10.2
2023-05-20T03:44:00.328Z,10.2
2023-05-20T03:45:00.484Z,10.2
2023-05-20T03:46:00.657Z,10.2
2023-05-20T03:47:01.065Z,10.2
2023-05-20T03:48:01.599Z,10.2
2023-05-20T03:49:01.855Z,10.2
2023-05-20T03:50:02.037Z,10.2
2023-05-20T03:51:02.361Z,10.2
2023-05-20T03:52:02.890Z,10.2
2023-05-20T03:53:03.065Z,10.2
2023-05-20T03:54:03.261Z,10.2
2023-05-20T03:55:03.449Z,10.2
2023-05-20T03:56:03.609Z,10.2
2023-05-20T03:57:03.759Z,10.2
2023-05-20T03:58:03.930Z,10.2
2023-05-20T03:59:04.155Z,10.2
2023-05-20T04:00:04.335Z,10.2
2023-05-20T04:01:04.548Z,10.2
2023-05-20T04:02:04.830Z,10.2
2023-05-20T04:03:05.262Z,10.2
2023-05-20T04:04:05.812Z,10.2
2023-05-20T04:05:06.088Z,10.2
2023-05-20T04:06:06.379Z,10.2
2023-05-20T04:07:06.739Z,10.2
2023-05-20T04:08:06.896Z,10.2
2023-05-20T04:09:07.165Z,10.2
2023-05-20T04:10:07.545Z,10.2
2023-05-20T04:11:07.716Z,9.7
2023-05-20T04:12:07.877Z,9.7
2023-05-20T04:13:08.067Z,9.7
2023-05-20T04:14:08.219Z,9.7
2023-05-20T04:15:08.376Z,9.7
2023-05-20T04:16:08.635Z,9.7
2023-05-20T04:17:09.021Z,9.7
2023-05-20T04:18:09.680Z,9.7
2023-05-20T04:19:10.151Z,9.7
2023-05-20T04:20:10.369Z,9.7
2023-05-20T04:21:10.612Z,9.7
2023-05-20T04:22:11.038Z,9.7
2023-05-20T04:23:11.231Z,9.7
2023-05-20T04:24:11.384Z,9.7
2023-05-20T04:25:11.539Z,9.7
2023-05-20T04:26:11.718Z,9.7
2023-05-20T04:27:12.011Z,9.7
2023-05-20T04:28:12.250Z,9.7
2023-05-20T04:29:12.417Z,9.7
2023-05-20T04:30:12.712Z,9.7
2023-05-20T04:31:13.022Z,9.7
2023-05-20T04:32:13.282Z,9.7
2023-05-20T04:33:13.563Z,9.7
2023-05-20T04:34:13.745Z,9.7
2023-05-20T04:35:14.332Z,9.7
2023-05-20T04:36:14.709Z,9.7
2023-05-20T04:37:14.880Z,9.7
2023-05-20T04:38:15.024Z,9.7
2023-05-20T04:39:15.195Z,9.7
2023-05-20T04:40:15.434Z,9.7
2023-05-20T04:41:15.730Z,9.7
2023-05-20T04:42:15.891Z,9.7
2023-05-20T04:43:16.083Z,9.7
2023-05-20T04:44:16.273Z,9.7
2023-05-20T04:45:16.460Z,9.7
2023-05-20T04:46:16.771Z,9.7
2023-05-20T04:47:17.094Z,9.7
2023-05-20T04:48:17.262Z,9.7
2023-05-20T04:49:17.424Z,9.7
2023-05-20T04:50:17.586Z,9.7
2023-05-20T04:51:17.733Z,9.7
2023-05-20T04:52:17.900Z,9.7
2023-05-20T04:53:18.098Z,9.7
2023-05-20T04:54:18.251Z,9.7
2023-05-20T04:55:18.414Z,9.7
2023-05-20T04:56:18.578Z,9.7
2023-05-20T04:57:18.749Z,9.7
2023-05-20T04:58:18.934Z,9.7
2023-05-20T04:59:19.109Z,9.7
2023-05-20T05:00:19.259Z,9.7
2023-05-20T05:01:19.511Z,9.7
2023-05-20T05:02:19.781Z,9.7
2023-05-20T05:03:19.954Z,9.7
2023-05-20T05:04:20.199Z,9.7
2023-05-20T05:05:20.442Z,9.7
2023-05-20T05:06:20.633Z,9.7
2023-05-20T05:07:20.799Z,9.7
2023-05-20T05:08:20.970Z,9.7
2023-05-20T05:09:21.140Z,9.7
2023-05-20T05:10:21.291Z,9.7
2023-05-20T05:11:21.468Z,10.4
2023-05-20T05:12:21.663Z,10.4
2023-05-20T05:13:21.817Z,10.4
2023-05-20T05:14:21.992Z,10.4
2023-05-20T05:15:22.154Z,10.4
2023-05-20T05:16:22.506Z,10.4
2023-05-20T05:17:22.782Z,10.4
2023-05-20T05:18:22.964Z,10.4
2023-05-20T05:19:23.705Z,10.4
2023-05-20T05:20:24.206Z,10.4
2023-05-20T05:21:24.381Z,10.4
2023-05-20T05:22:24.609Z,10.4
2023-05-20T05:23:24.760Z,10.4
2023-05-20T05:24:24.909Z,10.4
2023-05-20T05:25:25.080Z,10.4
2023-05-20T05:26:25.265Z,10.4
2023-05-20T05:27:25.463Z,10.4
2023-05-20T05:28:25.704Z,10.4
2023-05-20T05:29:25.918Z,10.4
2023-05-20T05:30:26.153Z,10.4
2023-05-20T05:31:26.490Z,10.4
2023-05-20T05:32:26.917Z,10.4
2023-05-20T05:33:27.440Z,10.4
2023-05-20T05:34:27.711Z,10.4
2023-05-20T05:35:27.878Z,10.4
2023-05-20T05:36:28.047Z,10.4
2023-05-20T05:37:28.227Z,10.4
2023-05-20T05:38:28.429Z,10.4
2023-05-20T05:39:28.592Z,10.4
2023-05-20T05:40:28.754Z,10.4
2023-05-20T05:41:28.921Z,10.4
2023-05-20T05:42:29.086Z,10.4
2023-05-20T05:43:29.247Z,10.4
2023-05-20T05:44:29.437Z,10.4
2023-05-20T05:45:29.648Z,10.4
2023-05-20T05:46:29.876Z,10.4
2023-05-20T05:47:30.204Z,10.4
2023-05-20T05:48:30.432Z,10.4
2023-05-20T05:49:30.589Z,10.4
2023-05-20T05:50:30.743Z,10.4
2023-05-20T05:51:30.898Z,11.4
2023-05-20T05:52:31.051Z,11.4
2023-05-20T05:53:31.213Z,11.4
2023-05-20T05:54:31.378Z,11.4
2023-05-20T05:55:31.797Z,11.4
2023-05-20T05:56:32.479Z,11.4
2023-05-20T05:57:32.801Z,11.4
2023-05-20T05:58:33.068Z,11.4
2023-05-20T05:59:33.262Z,11.4
2023-05-20T06:00:33.448Z,11.4
2023-05-20T06:01:33.616Z,11.4
2023-05-20T06:02:33.896Z,11.4
2023-05-20T06:03:34.383Z,11.4
2023-05-20T06:04:35.039Z,11.4
2023-05-20T06:05:35.600Z,11.4
2023-05-20T06:06:36.118Z,11.4
2023-05-20T06:07:36.316Z,11.4
2023-05-20T06:08:36.490Z,11.4
2023-05-20T06:09:36.653Z,11.4
2023-05-20T06:10:36.834Z,11.4
2023-05-20T06:12:37.480Z,11.4
2023-05-20T06:13:37.692Z,12
2023-05-20T06:14:38.039Z,12
2023-05-20T06:15:38.210Z,12
2023-05-20T06:16:38.570Z,12
2023-05-20T06:17:38.938Z,12
2023-05-20T06:18:39.470Z,12
2023-05-20T06:19:40.014Z,12
2023-05-20T06:20:40.329Z,12
2023-05-20T06:21:40.495Z,12
2023-05-20T06:22:40.666Z,12
2023-05-20T06:23:40.840Z,12
2023-05-20T06:24:41.014Z,12.4
2023-05-20T06:25:41.207Z,12.4
2023-05-20T06:26:41.394Z,12.4
2023-05-20T06:27:41.576Z,12.4
2023-05-20T06:28:41.732Z,12.4
2023-05-20T06:29:44.021Z,12.4
2023-05-20T06:30:44.252Z,12.4
2023-05-20T06:31:44.491Z,12.4
2023-05-20T06:32:44.678Z,12.4
2023-05-20T06:33:44.886Z,12.4
2023-05-20T06:34:45.469Z,12.4
2023-05-20T06:35:46.532Z,12.4
2023-05-20T06:36:46.700Z,12.4
2023-05-20T06:37:46.917Z,12.4
2023-05-20T06:38:47.161Z,12.4
2023-05-20T06:39:47.324Z,12.4
2023-05-20T06:40:47.488Z,12.4
2023-05-20T06:41:47.669Z,12.4
2023-05-20T06:42:47.824Z,12.4
2023-05-20T06:43:47.997Z,12.4
2023-05-20T06:44:48.304Z,12.4
2023-05-20T06:45:48.796Z,12.4
2023-05-20T06:46:49.026Z,12.4
2023-05-20T06:47:49.407Z,12.4
2023-05-20T06:48:49.602Z,12.4
2023-05-20T06:49:49.757Z,12.4
2023-05-20T06:50:49.936Z,12.4
2023-05-20T06:51:50.102Z,12.4
2023-05-20T06:52:50.281Z,12.4
2023-05-20T06:53:50.447Z,13.4
2023-05-20T06:54:50.609Z,13.4
2023-05-20T06:55:50.779Z,13.4
2023-05-20T06:56:50.965Z,13.4
2023-05-20T06:57:51.144Z,13.4
2023-05-20T06:58:51.306Z,13.4
2023-05-20T06:59:51.497Z,13.4
2023-05-20T07:00:51.660Z,13.4
2023-05-20T07:01:51.971Z,13.4
2023-05-20T07:02:52.485Z,13.4
2023-05-20T07:03:52.779Z,13.4
2023-05-20T07:04:53.134Z,13.4
2023-05-20T07:05:53.318Z,13.4
2023-05-20T07:06:53.464Z,13.4
2023-05-20T07:07:53.635Z,13.4
2023-05-20T07:08:53.801Z,13.4
2023-05-20T07:09:53.972Z,13.4
2023-05-20T07:10:54.146Z,13.4
2023-05-20T07:11:54.305Z,13.4
2023-05-20T07:12:54.489Z,13.4
2023-05-20T07:13:54.700Z,13.4
2023-05-20T07:14:54.866Z,13.4
2023-05-20T07:15:55.104Z,13.4
2023-05-20T07:16:55.491Z,13.4
2023-05-20T07:17:55.732Z,13.4
2023-05-20T07:18:56.142Z,13.4
2023-05-20T07:19:56.367Z,13.4
2023-05-20T07:20:56.546Z,13.4
2023-05-20T07:21:56.732Z,13.4
2023-05-20T07:22:56.893Z,13.4
2023-05-20T07:23:57.038Z,13.4
2023-05-20T07:24:57.225Z,13.4
2023-05-20T07:25:57.400Z,13.4
2023-05-20T07:26:57.620Z,13.4
2023-05-20T07:27:57.789Z,13.4
2023-05-20T07:28:57.969Z,13.4
2023-05-20T07:29:58.145Z,13.4
2023-05-20T07:30:58.308Z,13.4
2023-05-20T07:31:58.719Z,13.4
2023-05-20T07:32:59.172Z,13.4
2023-05-20T07:33:59.528Z,13.4
2023-05-20T07:34:59.689Z,13.4
2023-05-20T07:35:59.864Z,13.4
2023-05-20T07:37:00.033Z,13.4
2023-05-20T07:38:00.264Z,13.4
2023-05-20T07:39:07.237Z,13.4
2023-05-20T07:40:14.322Z,14.3
2023-05-20T07:41:14.497Z,14.3
2023-05-20T07:42:14.719Z,14.3
2023-05-20T07:43:14.887Z,14.4
2023-05-20T07:44:15.124Z,14.4
2023-05-20T07:45:15.321Z,14.4
2023-05-20T07:46:18.700Z,14.4
2023-05-20T07:47:20.409Z,14.5
2023-05-20T07:48:20.571Z,14.5
2023-05-20T07:49:20.753Z,14.5
2023-05-20T07:50:20.923Z,14.5
2023-05-20T07:51:21.086Z,14.5
2023-05-20T07:52:21.237Z,14.5
2023-05-20T07:53:21.403Z,14.5
2023-05-20T07:54:21.588Z,14.5
2023-05-20T07:55:21.767Z,14.5
2023-05-20T07:56:21.942Z,14.5
2023-05-20T07:57:22.157Z,14.5
2023-05-20T07:58:22.336Z,14.5
2023-05-20T07:59:22.552Z,14.5
2023-05-20T08:00:22.750Z,14.5
2023-05-20T08:01:23.174Z,14.5
2023-05-20T08:02:23.477Z,14.5
2023-05-20T08:03:23.889Z,14.5
2023-05-20T08:04:24.350Z,14.5
2023-05-20T08:05:24.555Z,14.5
2023-05-20T08:06:27.399Z,14.5
2023-05-20T08:07:30.117Z,15
2023-05-20T08:08:30.281Z,15
2023-05-20T08:09:30.443Z,15
2023-05-20T08:10:30.620Z,15
2023-05-20T08:11:30.811Z,15
2023-05-20T08:12:31.009Z,15
2023-05-20T08:13:31.174Z,15
2023-05-20T08:14:31.343Z,15
2023-05-20T08:15:31.577Z,15
2023-05-20T08:16:32.054Z,15
2023-05-20T08:17:32.342Z,15
2023-05-20T08:18:32.576Z,15
2023-05-20T08:19:32.986Z,15
2023-05-20T08:20:33.379Z,15
2023-05-20T08:21:33.544Z,15
2023-05-20T08:22:33.696Z,15
2023-05-20T08:23:39.635Z,15
2023-05-20T08:24:40.872Z,15.3
2023-05-20T08:25:41.045Z,15.3
2023-05-20T08:26:41.206Z,15.3
2023-05-20T08:27:41.370Z,15.4
2023-05-20T08:28:41.561Z,15.4
2023-05-20T08:29:41.706Z,15.4
2023-05-20T08:30:41.894Z,15.4
2023-05-20T08:31:42.357Z,15.4
2023-05-20T08:32:42.756Z,15.4
2023-05-20T08:33:43.056Z,15.4
2023-05-20T08:34:43.218Z,15.4
2023-05-20T08:35:43.385Z,15.4
2023-05-20T08:36:43.551Z,15.4
2023-05-20T08:37:43.718Z,15.4
2023-05-20T08:38:43.859Z,15.4
2023-05-20T08:39:44.040Z,15.4
2023-05-20T08:40:44.197Z,15.4
2023-05-20T08:41:44.362Z,15.4
2023-05-20T08:42:44.544Z,15.4
2023-05-20T08:43:44.694Z,15.4
2023-05-20T08:44:44.872Z,15.4
2023-05-20T08:45:45.035Z,15.4
2023-05-20T08:46:45.289Z,15.4
2023-05-20T08:47:45.728Z,15.4
2023-05-20T08:48:45.994Z,15.4
2023-05-20T08:49:46.151Z,15.4
2023-05-20T08:50:46.326Z,15.4
2023-05-20T08:51:46.511Z,15.4
2023-05-20T08:52:46.693Z,15.4
2023-05-20T08:53:46.864Z,15.4
2023-05-20T08:54:47.033Z,15.4
2023-05-20T08:55:47.199Z,15.4
2023-05-20T08:56:47.394Z,15.4
2023-05-20T08:57:47.571Z,15.4
2023-05-20T08:58:47.728Z,15.4
2023-05-20T08:59:47.890Z,15.4
2023-05-20T09:00:48.093Z,15.4
2023-05-20T09:01:48.386Z,15.4
2023-05-20T09:02:48.790Z,15.4
2023-05-20T09:03:49.011Z,15.4
2023-05-20T09:04:49.280Z,15.4
2023-05-20T09:05:49.498Z,15.4
2023-05-20T09:06:49.651Z,15.4
2023-05-20T09:07:49.833Z,15.4
2023-05-20T09:08:50.019Z,15.4
2023-05-20T09:09:50.202Z,15.4
2023-05-20T09:10:50.355Z,15.4
2023-05-20T09:11:50.535Z,15.4
2023-05-20T09:12:50.717Z,15.4
2023-05-20T09:13:50.900Z,15.4
2023-05-20T09:14:51.089Z,15.4
2023-05-20T09:15:51.383Z,15.4
2023-05-20T09:16:51.724Z,15.4
2023-05-20T09:17:51.980Z,15.4
2023-05-20T09:18:52.368Z,15.4
2023-05-20T09:19:52.631Z,15.4
2023-05-20T09:20:52.780Z,15.4
2023-05-20T09:21:52.947Z,15.4
2023-05-20T09:22:53.274Z,15.4
2023-05-20T09:23:53.867Z,15.4
2023-05-20T09:24:54.015Z,15.4
2023-05-20T09:25:54.174Z,15.4
2023-05-20T09:26:54.332Z,15.4
2023-05-20T09:27:54.804Z,15.9
2023-05-20T09:28:55.723Z,15.9
2023-05-20T09:29:55.912Z,15.9
2023-05-20T09:30:56.088Z,15.9
2023-05-20T09:31:56.560Z,15.9
2023-05-20T09:32:56.967Z,15.9
2023-05-20T09:33:57.224Z,15.9
2023-05-20T09:34:57.376Z,15.9
2023-05-20T09:35:57.547Z,15.9
2023-05-20T09:36:57.714Z,15.9
2023-05-20T09:37:57.883Z,15.9
2023-05-20T09:38:58.049Z,15.9
2023-05-20T09:39:58.226Z,15.9
2023-05-20T09:40:58.392Z,15.9
2023-05-20T09:41:58.564Z,15.9
2023-05-20T09:42:58.725Z,15.9
2023-05-20T09:43:58.916Z,15.9
2023-05-20T09:44:59.096Z,15.9
2023-05-20T09:45:59.414Z,15.9
2023-05-20T09:46:59.678Z,15.9
2023-05-20T09:47:59.911Z,15.9
2023-05-20T09:49:00.236Z,15.9
2023-05-20T09:50:00.405Z,15.9
2023-05-20T09:51:00.590Z,15.9
2023-05-20T09:52:00.757Z,15.9
2023-05-20T09:53:00.925Z,15.9
2023-05-20T09:54:01.129Z,15.9
2023-05-20T09:55:01.311Z,15.9
2023-05-20T09:56:01.500Z,16.9
2023-05-20T09:57:01.744Z,16.9
2023-05-20T09:58:02.003Z,16.9
2023-05-20T09:59:02.258Z,16.9
2023-05-20T10:00:02.428Z,16.9
2023-05-20T10:01:02.654Z,16.9
2023-05-20T10:02:02.863Z,16.9
2023-05-20T10:03:03.240Z,16.9
2023-05-20T10:04:03.632Z,16.9
2023-05-20T10:05:03.882Z,16.9
2023-05-20T10:06:04.052Z,16.9
2023-05-20T10:07:04.218Z,16.9
2023-05-20T10:08:04.390Z,16.9
2023-05-20T10:09:04.576Z,16.9
2023-05-20T10:10:04.731Z,16.9
2023-05-20T10:11:04.966Z,16.9
2023-05-20T10:12:05.142Z,16.9
2023-05-20T10:13:05.361Z,16.9
2023-05-20T10:14:05.673Z,16.9
2023-05-20T10:15:05.838Z,16.9
2023-05-20T10:16:06.077Z,16.9
2023-05-20T10:17:06.246Z,16.9
2023-05-20T10:18:06.426Z,16.9
2023-05-20T10:19:06.693Z,16.9
2023-05-20T10:20:07.212Z,16.9
2023-05-20T10:21:07.373Z,16.9
2023-05-20T10:22:07.547Z,16.9
2023-05-20T10:23:07.764Z,16.9
2023-05-20T10:24:07.936Z,16.9
2023-05-20T10:25:08.117Z,16.9
2023-05-20T10:26:08.274Z,16.9
2023-05-20T10:27:08.415Z,16.9
2023-05-20T10:28:08.607Z,16.9
2023-05-20T10:29:11.811Z,16.9
2023-05-20T10:30:12.049Z,17.9
2023-05-20T10:31:12.251Z,17.9
2023-05-20T10:32:12.524Z,17.9
2023-05-20T10:33:13.103Z,17.9
2023-05-20T10:34:13.593Z,17.9
2023-05-20T10:35:13.759Z,17.9
2023-05-20T10:36:13.914Z,17.9
2023-05-20T10:37:14.072Z,17.9
2023-05-20T10:38:14.252Z,17.9
2023-05-20T10:39:14.430Z,17.9
2023-05-20T10:40:14.588Z,17.9
2023-05-20T10:41:14.862Z,17.9
2023-05-20T10:42:15.246Z,17.9
2023-05-20T10:43:15.422Z,17.9
2023-05-20T10:44:15.617Z,17.9
2023-05-20T10:45:15.790Z,17.9
2023-05-20T10:46:38.458Z,17.9
2023-05-20T10:48:11.010Z,18.2
2023-05-20T10:49:11.537Z,18.2
2023-05-20T10:50:12.103Z,18.2
2023-05-20T10:51:12.270Z,18.2
2023-05-20T10:52:12.438Z,18.2
2023-05-20T10:53:29.600Z,18.2
2023-05-20T10:54:34.594Z,18.29
2023-05-20T10:55:34.765Z,18.29
2023-05-20T10:56:35.066Z,18.29
2023-05-20T10:57:35.392Z,18.29
2023-05-20T10:58:35.566Z,18.29
2023-05-20T10:59:35.757Z,18.29
2023-05-20T11:00:36.868Z,18.29
2023-05-20T11:01:38.174Z,18.29
2023-05-20T11:02:38.692Z,18.29
2023-05-20T11:03:39.409Z,18.29
2023-05-20T11:04:39.739Z,18.29
2023-05-20T11:05:39.899Z,18.29
2023-05-20T11:06:40.061Z,18.29
2023-05-20T11:07:40.235Z,18.29
2023-05-20T11:08:40.427Z,18.29
2023-05-20T11:09:40.851Z,18.29
2023-05-20T11:10:41.020Z,18.29
2023-05-20T11:11:41.182Z,18.29
2023-05-20T11:12:41.455Z,18.29
2023-05-20T11:13:41.741Z,18.29
2023-05-20T11:14:41.905Z,18.29
2023-05-20T11:15:42.074Z,18.29
2023-05-20T11:16:42.415Z,18.29
2023-05-20T11:17:42.880Z,18.29
2023-05-20T11:18:43.172Z,18.29
2023-05-20T11:19:43.441Z,18.29
2023-05-20T11:20:43.600Z,18.29
2023-05-20T11:21:43.773Z,18.29
2023-05-20T11:22:43.952Z,18.29
2023-05-20T11:23:44.125Z,18.29
2023-05-20T11:24:44.304Z,18.29
2023-05-20T11:25:44.474Z,18.29
2023-05-20T11:26:44.638Z,18.29
2023-05-20T11:27:44.791Z,18.29
2023-05-20T11:28:44.973Z,18.29
2023-05-20T11:29:45.150Z,18.79
2023-05-20T11:30:45.318Z,18.79
2023-05-20T11:31:45.561Z,18.79
2023-05-20T11:32:45.971Z,18.79
2023-05-20T11:33:46.236Z,18.79
2023-05-20T11:34:46.416Z,18.79
2023-05-20T11:35:46.624Z,18.79
2023-05-20T11:36:46.795Z,18.79
2023-05-20T11:37:46.967Z,18.79
2023-05-20T11:38:47.150Z,18.79
2023-05-20T11:39:47.319Z,18.79
2023-05-20T11:40:51.911Z,18.79
2023-05-20T11:41:52.295Z,19.2
2023-05-20T11:42:52.448Z,19.2
2023-05-20T11:43:52.789Z,19.2
2023-05-20T11:44:52.969Z,19.2
2023-05-20T11:45:53.189Z,19.2
2023-05-20T11:46:53.411Z,19.2
2023-05-20T11:47:53.687Z,19.2
2023-05-20T11:48:53.908Z,19.2
2023-05-20T11:49:54.069Z,19.2
2023-05-20T11:50:54.244Z,19.2
2023-05-20T11:51:54.430Z,19.2
2023-05-20T11:52:54.604Z,19.2
2023-05-20T11:53:54.787Z,19.2
2023-05-20T11:54:54.947Z,19.2
2023-05-20T11:55:55.128Z,19.79
2023-05-20T11:56:55.280Z,19.79
2023-05-20T11:57:55.494Z,19.79
2023-05-20T11:58:55.751Z,19.79
2023-05-20T11:59:55.899Z,19.79
2023-05-20T12:01:13.870Z,19.79
2023-05-20T12:02:23.261Z,20
2023-05-20T12:03:23.862Z,20
2023-05-20T12:04:24.478Z,20
2023-05-20T12:05:24.784Z,20
2023-05-20T12:06:24.956Z,20
2023-05-20T12:07:25.110Z,20
2023-05-20T12:08:25.298Z,20
2023-05-20T12:09:25.466Z,20
2023-05-20T12:10:25.719Z,20
2023-05-20T12:11:25.990Z,20
2023-05-20T12:12:26.162Z,20
2023-05-20T12:13:26.328Z,20
2023-05-20T12:14:26.490Z,20
2023-05-20T12:15:26.664Z,20
2023-05-20T12:16:26.956Z,20
2023-05-20T12:17:27.330Z,20
2023-05-20T12:18:27.530Z,20
2023-05-20T12:19:27.781Z,20
2023-05-20T12:20:28.175Z,20
2023-05-20T12:21:28.391Z,20
2023-05-20T12:22:28.580Z,20
2023-05-20T12:23:28.746Z,20
2023-05-20T12:24:28.907Z,20
2023-05-20T12:25:29.083Z,20
2023-05-20T12:26:29.354Z,20
2023-05-20T12:27:29.594Z,20
2023-05-20T12:28:29.741Z,20
2023-05-20T12:29:29.919Z,20
2023-05-20T12:30:30.119Z,20.8
2023-05-20T12:31:34.778Z,20.8
2023-05-20T12:32:35.631Z,20.8
2023-05-20T12:33:35.962Z,20.8
2023-05-20T12:34:36.117Z,20.8
2023-05-20T12:35:36.327Z,20.8
2023-05-20T12:36:36.499Z,20.8
2023-05-20T12:37:36.839Z,20.8
2023-05-20T12:38:37.025Z,20.8
2023-05-20T12:39:37.195Z,20.8
2023-05-20T12:40:38.655Z,20.8
2023-05-20T12:41:39.307Z,20.8
2023-05-20T12:42:39.488Z,20.8
2023-05-20T12:43:39.691Z,20.8
2023-05-20T12:44:39.879Z,20.8
2023-05-20T12:45:40.041Z,20.8
2023-05-20T12:46:40.398Z,20.8
2023-05-20T12:47:40.776Z,20.8
2023-05-20T12:48:42.821Z,20.8
2023-05-20T12:49:43.020Z,20.8
2023-05-20T12:50:43.186Z,20.8
2023-05-20T12:51:43.345Z,20.8
2023-05-20T12:52:43.516Z,20.8
2023-05-20T12:53:43.688Z,20.8
2023-05-20T12:54:43.843Z,21.8
2023-05-20T12:55:44.011Z,21.8
2023-05-20T12:56:44.169Z,21.8
2023-05-20T12:57:44.343Z,21.8
2023-05-20T12:58:44.536Z,21.8
2023-05-20T12:59:44.698Z,21.8
2023-05-20T13:00:44.986Z,21.8
2023-05-20T13:01:45.208Z,21.8
2023-05-20T13:02:45.620Z,21.8
2023-05-20T13:03:46.034Z,21.8
2023-05-20T13:04:46.346Z,21.8
2023-05-20T13:05:46.563Z,21.8
2023-05-20T13:06:46.760Z,21.8
2023-05-20T13:07:46.913Z,21.8
2023-05-20T13:08:47.075Z,21.8
2023-05-20T13:09:47.223Z,21.8
2023-05-20T13:10:47.372Z,21.8
2023-05-20T13:11:47.542Z,21.8
2023-05-20T13:12:47.851Z,21.8
2023-05-20T13:13:48.334Z,21.8
2023-05-20T13:14:48.504Z,21.8
2023-05-20T13:15:48.796Z,21.8
2023-05-20T13:16:49.291Z,21.8
2023-05-20T13:17:49.748Z,21.8
2023-05-20T13:18:50.299Z,21.8
2023-05-20T13:19:50.754Z,21.8
2023-05-20T13:20:50.943Z,21.8
2023-05-20T13:21:51.118Z,21.8
2023-05-20T13:22:51.306Z,21.8
2023-05-20T13:23:51.467Z,21.8
2023-05-20T13:24:51.706Z,21.8
2023-05-20T13:25:51.870Z,21.8
2023-05-20T13:26:52.031Z,21.8
2023-05-20T13:27:52.192Z,21.8
2023-05-20T13:28:52.383Z,21.8